sensor_id;sensor_type;location;lat;lon;timestamp;P1;durP1;ratioP1;P2;durP2;ratioP2
39434;SDS011;66825;51.880;-0.518;2023-06-19T00:01:58;2.40;;;2.20;;
39434;SDS011;66825;51.880;-0.518;2023-06-19T00:04:24;2.30;;;2.10;;
39434;SDS011;66825;51.880;-0.518;2023-06-19T00:06:50;2.45;;;2.25;;
39434;SDS011;66825;51.880;-0.518;2023-06-19T00:09:16;2.28;;;2.10;;
39434;SDS011;66825;51.880;-0.518;2023-06-19T00:11:42;2.50;;;2.30;;
39434;SDS011;66825;51.880;-0.518;2023-06-19T00:14:07;2.60;;;2.40;;
39434;SDS011;66825;51.880;-0.518;2023-06-19T00:16:33;2.58;;;2.38;;
39434;SDS011;66825;51.880;-0.518;2023-06-19T00:18:59;2.47;;;2.28;;
39434;SDS011;66825;51.880;-0.518;2023-06-19T00:21:24;2.33;;;2.20;;
39434;SDS011;66825;51.880;-0.518;2023-06-19T00:23:51;2.50;;;2.30;;
39434;SDS011;66825;51.880;-0.518;2023-06-19T00:26:17;2.60;;;2.40;;
39434;SDS011;66825;51.880;-0.518;2023-06-19T00:28:44;2.50;;;2.30;;
39434;SDS011;66825;51.880;-0.518;2023-06-19T00:31:12;2.60;;;2.40;;
39434;SDS011;66825;51.880;-0.518;2023-06-19T00:33:39;2.45;;;2.25;;
39434;SDS011;66825;51.880;-0.518;2023-06-19T00:36:09;2.15;;;2.05;;
39434;SDS011;66825;51.880;-0.518;2023-06-19T00:38:38;2.50;;;2.30;;
39434;SDS011;66825;51.880;-0.518;2023-06-19T00:41:04;2.50;;;2.30;;
39434;SDS011;66825;51.880;-0.518;2023-06-19T00:43:30;2.47;;;2.28;;
39434;SDS011;66825;51.880;-0.518;2023-06-19T00:46:00;2.45;;;2.25;;
39434;SDS011;66825;51.880;-0.518;2023-06-19T00:48:27;2.08;;;1.98;;
39434;SDS011;66825;51.880;-0.518;2023-06-19T00:50:53;2.67;;;2.47;;
39434;SDS011;66825;51.880;-0.518;2023-06-19T00:53:21;2.33;;;2.20;;
39434;SDS011;66825;51.880;-0.518;2023-06-19T00:55:47;2.30;;;2.10;;
39434;SDS011;66825;51.880;-0.518;2023-06-19T00:58:14;2.53;;;2.33;;
39434;SDS011;66825;51.880;-0.518;2023-06-19T01:00:40;2.35;;;2.20;;
39434;SDS011;66825;51.880;-0.518;2023-06-19T01:03:06;2.58;;;2.30;;
39434;SDS011;66825;51.880;-0.518;2023-06-19T01:05:31;2.45;;;2.25;;
39434;SDS011;66825;51.880;-0.518;2023-06-19T01:07:59;2.47;;;2.28;;
39434;SDS011;66825;51.880;-0.518;2023-06-19T01:10:36;2.33;;;2.20;;
39434;SDS011;66825;51.880;-0.518;2023-06-19T01:13:08;2.83;;;2.63;;
39434;SDS011;66825;51.880;-0.518;2023-06-19T01:15:40;2.55;;;2.35;;
39434;SDS011;66825;51.880;-0.518;2023-06-19T01:18:07;2.67;;;2.47;;
39434;SDS011;66825;51.880;-0.518;2023-06-19T01:20:32;2.50;;;2.30;;
39434;SDS011;66825;51.880;-0.518;2023-06-19T01:23:05;2.60;;;2.40;;
39434;SDS011;66825;51.880;-0.518;2023-06-19T01:25:32;2.50;;;2.30;;
39434;SDS011;66825;51.880;-0.518;2023-06-19T01:27:57;2.50;;;2.30;;
39434;SDS011;66825;51.880;-0.518;2023-06-19T01:30:23;2.55;;;2.35;;
39434;SDS011;66825;51.880;-0.518;2023-06-19T01:35:40;2.13;;;2.03;;
39434;SDS011;66825;51.880;-0.518;2023-06-19T01:38:07;2.75;;;2.55;;
39434;SDS011;66825;51.880;-0.518;2023-06-19T01:40:33;2.58;;;2.38;;
39434;SDS011;66825;51.880;-0.518;2023-06-19T01:43:00;2.60;;;2.40;;
39434;SDS011;66825;51.880;-0.518;2023-06-19T01:45:27;2.35;;;2.15;;
39434;SDS011;66825;51.880;-0.518;2023-06-19T01:47:54;2.75;;;2.53;;
39434;SDS011;66825;51.880;-0.518;2023-06-19T01:50:23;2.60;;;2.40;;
39434;SDS011;66825;51.880;-0.518;2023-06-19T01:52:49;2.50;;;2.30;;
39434;SDS011;66825;51.880;-0.518;2023-06-19T01:55:15;2.30;;;2.10;;
39434;SDS011;66825;51.880;-0.518;2023-06-19T01:57:41;2.60;;;2.40;;
39434;SDS011;66825;51.880;-0.518;2023-06-19T02:00:07;2.65;;;2.45;;
39434;SDS011;66825;51.880;-0.518;2023-06-19T02:02:33;2.83;;;2.53;;
39434;SDS011;66825;51.880;-0.518;2023-06-19T02:04:59;2.40;;;2.20;;
39434;SDS011;66825;51.880;-0.518;2023-06-19T02:07:24;2.55;;;2.35;;
39434;SDS011;66825;51.880;-0.518;2023-06-19T02:09:50;2.75;;;2.55;;
39434;SDS011;66825;51.880;-0.518;2023-06-19T02:12:16;2.70;;;2.50;;
39434;SDS011;66825;51.880;-0.518;2023-06-19T02:14:41;2.30;;;2.15;;
39434;SDS011;66825;51.880;-0.518;2023-06-19T02:17:07;2.40;;;2.20;;
39434;SDS011;66825;51.880;-0.518;2023-06-19T02:19:32;2.60;;;2.40;;
39434;SDS011;66825;51.880;-0.518;2023-06-19T02:21:58;2.20;;;2.10;;
39434;SDS011;66825;51.880;-0.518;2023-06-19T02:24:24;2.50;;;2.30;;
39434;SDS011;66825;51.880;-0.518;2023-06-19T02:26:49;2.70;;;2.50;;
39434;SDS011;66825;51.880;-0.518;2023-06-19T02:29:15;2.47;;;2.28;;
39434;SDS011;66825;51.880;-0.518;2023-06-19T02:31:41;2.50;;;2.30;;
39434;SDS011;66825;51.880;-0.518;2023-06-19T02:34:07;2.42;;;2.22;;
39434;SDS011;66825;51.880;-0.518;2023-06-19T02:36:34;2.40;;;2.20;;
39434;SDS011;66825;51.880;-0.518;2023-06-19T02:39:01;2.63;;;2.42;;
39434;SDS011;66825;51.880;-0.518;2023-06-19T02:41:31;2.60;;;2.40;;
39434;SDS011;66825;51.880;-0.518;2023-06-19T02:43:57;2.40;;;2.20;;
39434;SDS011;66825;51.880;-0.518;2023-06-19T02:46:22;2.40;;;2.20;;
39434;SDS011;66825;51.880;-0.518;2023-06-19T02:48:48;2.50;;;2.30;;
39434;SDS011;66825;51.880;-0.518;2023-06-19T02:51:13;2.70;;;2.50;;
39434;SDS011;66825;51.880;-0.518;2023-06-19T02:53:39;2.38;;;2.17;;
39434;SDS011;66825;51.880;-0.518;2023-06-19T02:56:05;2.53;;;2.33;;
39434;SDS011;66825;51.880;-0.518;2023-06-19T02:58:32;2.40;;;2.20;;
39434;SDS011;66825;51.880;-0.518;2023-06-19T03:00:59;2.35;;;2.20;;
39434;SDS011;66825;51.880;-0.518;2023-06-19T03:03:25;2.38;;;2.17;;
39434;SDS011;66825;51.880;-0.518;2023-06-19T03:05:51;2.50;;;2.30;;
39434;SDS011;66825;51.880;-0.518;2023-06-19T03:08:16;2.22;;;2.05;;
39434;SDS011;66825;51.880;-0.518;2023-06-19T03:10:42;2.55;;;2.35;;
39434;SDS011;66825;51.880;-0.518;2023-06-19T03:13:08;2.60;;;2.40;;
39434;SDS011;66825;51.880;-0.518;2023-06-19T03:15:33;2.40;;;2.20;;
39434;SDS011;66825;51.880;-0.518;2023-06-19T03:18:02;2.30;;;2.20;;
39434;SDS011;66825;51.880;-0.518;2023-06-19T03:20:31;2.33;;;2.13;;
39434;SDS011;66825;51.880;-0.518;2023-06-19T03:22:57;2.60;;;2.40;;
39434;SDS011;66825;51.880;-0.518;2023-06-19T03:25:23;2.42;;;2.22;;
39434;SDS011;66825;51.880;-0.518;2023-06-19T03:27:49;2.50;;;2.30;;
39434;SDS011;66825;51.880;-0.518;2023-06-19T03:30:14;2.17;;;2.08;;
39434;SDS011;66825;51.880;-0.518;2023-06-19T03:32:43;2.42;;;2.10;;
39434;SDS011;66825;51.880;-0.518;2023-06-19T03:35:09;2.53;;;2.33;;
39434;SDS011;66825;51.880;-0.518;2023-06-19T03:37:35;2.30;;;2.10;;
39434;SDS011;66825;51.880;-0.518;2023-06-19T03:40:01;2.50;;;2.30;;
39434;SDS011;66825;51.880;-0.518;2023-06-19T03:42:28;2.63;;;2.42;;
39434;SDS011;66825;51.880;-0.518;2023-06-19T03:44:54;2.50;;;2.30;;
39434;SDS011;66825;51.880;-0.518;2023-06-19T03:47:19;2.50;;;2.30;;
39434;SDS011;66825;51.880;-0.518;2023-06-19T03:49:46;2.30;;;2.10;;
39434;SDS011;66825;51.880;-0.518;2023-06-19T03:52:11;2.40;;;2.20;;
39434;SDS011;66825;51.880;-0.518;2023-06-19T03:54:37;2.33;;;2.13;;
39434;SDS011;66825;51.880;-0.518;2023-06-19T03:57:02;2.60;;;2.40;;
39434;SDS011;66825;51.880;-0.518;2023-06-19T03:59:28;2.38;;;2.17;;
39434;SDS011;66825;51.880;-0.518;2023-06-19T04:01:54;2.40;;;2.20;;
39434;SDS011;66825;51.880;-0.518;2023-06-19T04:04:19;2.40;;;2.20;;
39434;SDS011;66825;51.880;-0.518;2023-06-19T04:06:45;2.28;;;2.13;;
39434;SDS011;66825;51.880;-0.518;2023-06-19T04:09:12;2.08;;;1.98;;
39434;SDS011;66825;51.880;-0.518;2023-06-19T04:11:37;2.08;;;1.98;;
39434;SDS011;66825;51.880;-0.518;2023-06-19T04:14:03;2.38;;;2.17;;
39434;SDS011;66825;51.880;-0.518;2023-06-19T04:16:29;2.28;;;2.10;;
39434;SDS011;66825;51.880;-0.518;2023-06-19T04:18:54;2.47;;;2.28;;
39434;SDS011;66825;51.880;-0.518;2023-06-19T04:21:19;2.35;;;2.15;;
39434;SDS011;66825;51.880;-0.518;2023-06-19T04:23:45;2.50;;;2.30;;
39434;SDS011;66825;51.880;-0.518;2023-06-19T04:26:10;2.60;;;2.40;;
39434;SDS011;66825;51.880;-0.518;2023-06-19T04:28:36;2.50;;;2.30;;
39434;SDS011;66825;51.880;-0.518;2023-06-19T04:31:01;2.22;;;2.10;;
39434;SDS011;66825;51.880;-0.518;2023-06-19T04:33:27;2.55;;;2.35;;
39434;SDS011;66825;51.880;-0.518;2023-06-19T04:35:54;2.47;;;2.28;;
39434;SDS011;66825;51.880;-0.518;2023-06-19T04:38:19;2.40;;;2.20;;
39434;SDS011;66825;51.880;-0.518;2023-06-19T04:40:49;2.47;;;2.28;;
39434;SDS011;66825;51.880;-0.518;2023-06-19T04:43:17;2.20;;;2.00;;
39434;SDS011;66825;51.880;-0.518;2023-06-19T04:45:43;2.63;;;2.28;;
39434;SDS011;66825;51.880;-0.518;2023-06-19T04:48:09;2.35;;;2.15;;
39434;SDS011;66825;51.880;-0.518;2023-06-19T04:50:35;2.42;;;2.22;;
39434;SDS011;66825;51.880;-0.518;2023-06-19T04:53:00;2.38;;;2.20;;
39434;SDS011;66825;51.880;-0.518;2023-06-19T04:55:26;2.45;;;2.25;;
39434;SDS011;66825;51.880;-0.518;2023-06-19T04:57:51;2.40;;;2.20;;
39434;SDS011;66825;51.880;-0.518;2023-06-19T05:00:17;2.53;;;2.33;;
39434;SDS011;66825;51.880;-0.518;2023-06-19T05:02:48;2.30;;;2.10;;
39434;SDS011;66825;51.880;-0.518;2023-06-19T05:05:14;2.20;;;2.00;;
39434;SDS011;66825;51.880;-0.518;2023-06-19T05:07:41;2.08;;;1.98;;
39434;SDS011;66825;51.880;-0.518;2023-06-19T05:10:07;2.40;;;2.20;;
39434;SDS011;66825;51.880;-0.518;2023-06-19T05:12:34;2.30;;;2.10;;
39434;SDS011;66825;51.880;-0.518;2023-06-19T05:15:00;2.35;;;2.15;;
39434;SDS011;66825;51.880;-0.518;2023-06-19T05:17:26;2.45;;;2.25;;
39434;SDS011;66825;51.880;-0.518;2023-06-19T05:19:52;2.50;;;2.30;;
39434;SDS011;66825;51.880;-0.518;2023-06-19T05:22:17;2.30;;;2.10;;
39434;SDS011;66825;51.880;-0.518;2023-06-19T05:24:44;2.40;;;2.20;;
39434;SDS011;66825;51.880;-0.518;2023-06-19T05:27:10;2.38;;;2.17;;
39434;SDS011;66825;51.880;-0.518;2023-06-19T05:29:35;2.50;;;2.30;;
39434;SDS011;66825;51.880;-0.518;2023-06-19T05:32:01;2.60;;;2.40;;
39434;SDS011;66825;51.880;-0.518;2023-06-19T05:34:27;2.70;;;2.50;;
39434;SDS011;66825;51.880;-0.518;2023-06-19T05:36:52;2.63;;;2.42;;
39434;SDS011;66825;51.880;-0.518;2023-06-19T05:39:18;2.55;;;2.35;;
39434;SDS011;66825;51.880;-0.518;2023-06-19T05:41:44;2.63;;;2.42;;
39434;SDS011;66825;51.880;-0.518;2023-06-19T05:44:11;2.45;;;2.25;;
39434;SDS011;66825;51.880;-0.518;2023-06-19T05:46:42;2.40;;;2.20;;
39434;SDS011;66825;51.880;-0.518;2023-06-19T05:49:08;2.50;;;2.30;;
39434;SDS011;66825;51.880;-0.518;2023-06-19T05:51:34;2.58;;;2.38;;
39434;SDS011;66825;51.880;-0.518;2023-06-19T05:53:59;2.50;;;2.30;;
39434;SDS011;66825;51.880;-0.518;2023-06-19T05:56:31;2.38;;;2.17;;
39434;SDS011;66825;51.880;-0.518;2023-06-19T05:59:01;2.55;;;2.35;;
39434;SDS011;66825;51.880;-0.518;2023-06-19T06:01:27;2.33;;;2.13;;
39434;SDS011;66825;51.880;-0.518;2023-06-19T06:03:54;2.40;;;2.20;;
39434;SDS011;66825;51.880;-0.518;2023-06-19T06:06:20;2.40;;;2.20;;
39434;SDS011;66825;51.880;-0.518;2023-06-19T06:08:46;2.33;;;2.13;;
39434;SDS011;66825;51.880;-0.518;2023-06-19T06:11:11;2.45;;;2.25;;
39434;SDS011;66825;51.880;-0.518;2023-06-19T06:13:37;2.53;;;2.33;;
39434;SDS011;66825;51.880;-0.518;2023-06-19T06:16:02;2.25;;;2.05;;
39434;SDS011;66825;51.880;-0.518;2023-06-19T06:18:28;2.50;;;2.30;;
39434;SDS011;66825;51.880;-0.518;2023-06-19T06:20:53;2.42;;;2.22;;
39434;SDS011;66825;51.880;-0.518;2023-06-19T06:23:19;2.40;;;2.20;;
39434;SDS011;66825;51.880;-0.518;2023-06-19T06:25:44;2.42;;;2.22;;
39434;SDS011;66825;51.880;-0.518;2023-06-19T06:28:11;2.50;;;2.30;;
39434;SDS011;66825;51.880;-0.518;2023-06-19T06:30:37;2.47;;;2.28;;
39434;SDS011;66825;51.880;-0.518;2023-06-19T06:33:04;2.42;;;2.22;;
39434;SDS011;66825;51.880;-0.518;2023-06-19T06:35:29;2.60;;;2.40;;
39434;SDS011;66825;51.880;-0.518;2023-06-19T06:37:55;2.28;;;2.08;;
39434;SDS011;66825;51.880;-0.518;2023-06-19T06:40:21;2.38;;;2.17;;
39434;SDS011;66825;51.880;-0.518;2023-06-19T06:42:46;2.60;;;2.40;;
39434;SDS011;66825;51.880;-0.518;2023-06-19T06:45:12;2.30;;;2.10;;
39434;SDS011;66825;51.880;-0.518;2023-06-19T06:47:38;2.28;;;2.08;;
39434;SDS011;66825;51.880;-0.518;2023-06-19T06:50:05;2.40;;;2.20;;
39434;SDS011;66825;51.880;-0.518;2023-06-19T06:52:32;2.50;;;2.30;;
39434;SDS011;66825;51.880;-0.518;2023-06-19T06:54:58;2.42;;;2.22;;
39434;SDS011;66825;51.880;-0.518;2023-06-19T06:57:24;2.38;;;2.17;;
39434;SDS011;66825;51.880;-0.518;2023-06-19T06:59:50;2.65;;;2.45;;
39434;SDS011;66825;51.880;-0.518;2023-06-19T07:02:15;2.60;;;2.40;;
39434;SDS011;66825;51.880;-0.518;2023-06-19T07:04:41;2.47;;;2.28;;
39434;SDS011;66825;51.880;-0.518;2023-06-19T07:07:06;2.47;;;2.28;;
39434;SDS011;66825;51.880;-0.518;2023-06-19T07:09:33;2.80;;;2.60;;
39434;SDS011;66825;51.880;-0.518;2023-06-19T07:11:59;2.60;;;2.40;;
39434;SDS011;66825;51.880;-0.518;2023-06-19T07:14:26;2.50;;;2.30;;
39434;SDS011;66825;51.880;-0.518;2023-06-19T07:16:52;2.90;;;2.60;;
39434;SDS011;66825;51.880;-0.518;2023-06-19T07:19:18;2.35;;;2.15;;
39434;SDS011;66825;51.880;-0.518;2023-06-19T07:21:43;2.40;;;2.20;;
39434;SDS011;66825;51.880;-0.518;2023-06-19T07:24:09;2.65;;;2.45;;
39434;SDS011;66825;51.880;-0.518;2023-06-19T07:26:35;2.50;;;2.30;;
39434;SDS011;66825;51.880;-0.518;2023-06-19T07:29:00;2.75;;;2.55;;
39434;SDS011;66825;51.880;-0.518;2023-06-19T07:31:26;2.70;;;2.50;;
39434;SDS011;66825;51.880;-0.518;2023-06-19T07:33:51;2.50;;;2.30;;
39434;SDS011;66825;51.880;-0.518;2023-06-19T07:36:17;2.70;;;2.42;;
39434;SDS011;66825;51.880;-0.518;2023-06-19T07:38:42;2.97;;;2.78;;
39434;SDS011;66825;51.880;-0.518;2023-06-19T07:41:09;2.67;;;2.47;;
39434;SDS011;66825;51.880;-0.518;2023-06-19T07:43:36;2.85;;;2.55;;
39434;SDS011;66825;51.880;-0.518;2023-06-19T07:46:03;2.65;;;2.45;;
39434;SDS011;66825;51.880;-0.518;2023-06-19T07:48:29;2.90;;;2.60;;
39434;SDS011;66825;51.880;-0.518;2023-06-19T07:50:55;2.58;;;2.38;;
39434;SDS011;66825;51.880;-0.518;2023-06-19T07:53:21;2.95;;;2.70;;
39434;SDS011;66825;51.880;-0.518;2023-06-19T07:55:46;3.72;;;2.75;;
39434;SDS011;66825;51.880;-0.518;2023-06-19T07:58:13;2.88;;;2.67;;
39434;SDS011;66825;51.880;-0.518;2023-06-19T08:00:39;3.30;;;3.00;;
39434;SDS011;66825;51.880;-0.518;2023-06-19T08:03:04;4.22;;;3.10;;
39434;SDS011;66825;51.880;-0.518;2023-06-19T08:05:30;4.70;;;3.00;;
39434;SDS011;66825;51.880;-0.518;2023-06-19T08:07:58;3.20;;;2.90;;
39434;SDS011;66825;51.880;-0.518;2023-06-19T08:10:24;3.45;;;2.90;;
39434;SDS011;66825;51.880;-0.518;2023-06-19T08:12:50;3.10;;;2.65;;
39434;SDS011;66825;51.880;-0.518;2023-06-19T08:15:16;3.40;;;2.72;;
39434;SDS011;66825;51.880;-0.518;2023-06-19T08:17:41;3.67;;;2.85;;
39434;SDS011;66825;51.880;-0.518;2023-06-19T08:20:08;3.05;;;2.70;;
39434;SDS011;66825;51.880;-0.518;2023-06-19T08:22:35;4.68;;;3.28;;
39434;SDS011;66825;51.880;-0.518;2023-06-19T08:25:02;5.47;;;3.03;;
39434;SDS011;66825;51.880;-0.518;2023-06-19T08:27:29;6.00;;;3.25;;
39434;SDS011;66825;51.880;-0.518;2023-06-19T08:29:55;5.70;;;2.88;;
39434;SDS011;66825;51.880;-0.518;2023-06-19T08:32:22;4.93;;;3.10;;
39434;SDS011;66825;51.880;-0.518;2023-06-19T08:34:48;5.43;;;3.15;;
39434;SDS011;66825;51.880;-0.518;2023-06-19T08:37:15;5.68;;;3.08;;
39434;SDS011;66825;51.880;-0.518;2023-06-19T08:39:41;3.92;;;2.67;;
39434;SDS011;66825;51.880;-0.518;2023-06-19T08:42:07;4.68;;;2.88;;
39434;SDS011;66825;51.880;-0.518;2023-06-19T08:44:34;3.45;;;3.00;;
39434;SDS011;66825;51.880;-0.518;2023-06-19T08:47:04;5.53;;;2.90;;
39434;SDS011;66825;51.880;-0.518;2023-06-19T08:52:03;5.05;;;3.25;;
39434;SDS011;66825;51.880;-0.518;2023-06-19T08:54:29;8.82;;;3.47;;
39434;SDS011;66825;51.880;-0.518;2023-06-19T08:56:55;6.55;;;3.63;;
39434;SDS011;66825;51.880;-0.518;2023-06-19T08:59:21;5.45;;;2.97;;
39434;SDS011;66825;51.880;-0.518;2023-06-19T09:01:47;4.68;;;3.22;;
39434;SDS011;66825;51.880;-0.518;2023-06-19T09:04:26;5.30;;;2.97;;
39434;SDS011;66825;51.880;-0.518;2023-06-19T09:06:59;3.78;;;2.78;;
39434;SDS011;66825;51.880;-0.518;2023-06-19T09:09:26;3.67;;;3.08;;
39434;SDS011;66825;51.880;-0.518;2023-06-19T09:12:03;7.22;;;3.78;;
39434;SDS011;66825;51.880;-0.518;2023-06-19T09:14:34;6.35;;;2.88;;
39434;SDS011;66825;51.880;-0.518;2023-06-19T09:17:04;8.07;;;3.42;;
39434;SDS011;66825;51.880;-0.518;2023-06-19T09:19:31;5.63;;;3.40;;
39434;SDS011;66825;51.880;-0.518;2023-06-19T09:22:03;5.68;;;3.33;;
39434;SDS011;66825;51.880;-0.518;2023-06-19T09:24:36;6.85;;;3.67;;
39434;SDS011;66825;51.880;-0.518;2023-06-19T09:27:10;6.50;;;3.35;;
39434;SDS011;66825;51.880;-0.518;2023-06-19T09:29:42;4.43;;;3.25;;
39434;SDS011;66825;51.880;-0.518;2023-06-19T09:32:24;6.68;;;3.80;;
39434;SDS011;66825;51.880;-0.518;2023-06-19T09:34:52;7.55;;;3.63;;
39434;SDS011;66825;51.880;-0.518;2023-06-19T09:37:21;8.57;;;3.80;;
39434;SDS011;66825;51.880;-0.518;2023-06-19T09:39:50;8.05;;;4.00;;
39434;SDS011;66825;51.880;-0.518;2023-06-19T09:42:19;7.35;;;3.90;;
39434;SDS011;66825;51.880;-0.518;2023-06-19T09:44:52;5.07;;;3.28;;
39434;SDS011;66825;51.880;-0.518;2023-06-19T09:47:22;6.47;;;3.60;;
39434;SDS011;66825;51.880;-0.518;2023-06-19T09:49:54;7.32;;;3.30;;
39434;SDS011;66825;51.880;-0.518;2023-06-19T09:52:20;5.35;;;3.33;;
39434;SDS011;66825;51.880;-0.518;2023-06-19T09:54:50;12.40;;;3.60;;
39434;SDS011;66825;51.880;-0.518;2023-06-19T09:57:16;6.88;;;3.80;;
39434;SDS011;66825;51.880;-0.518;2023-06-19T09:59:42;8.75;;;3.58;;
39434;SDS011;66825;51.880;-0.518;2023-06-19T10:02:08;15.30;;;4.35;;
39434;SDS011;66825;51.880;-0.518;2023-06-19T10:04:45;17.00;;;5.07;;
39434;SDS011;66825;51.880;-0.518;2023-06-19T10:07:14;12.85;;;4.00;;
39434;SDS011;66825;51.880;-0.518;2023-06-19T10:09:42;7.80;;;3.45;;
39434;SDS011;66825;51.880;-0.518;2023-06-19T10:12:13;6.40;;;3.25;;
39434;SDS011;66825;51.880;-0.518;2023-06-19T10:14:46;6.65;;;3.50;;
39434;SDS011;66825;51.880;-0.518;2023-06-19T10:17:16;9.73;;;3.30;;
39434;SDS011;66825;51.880;-0.518;2023-06-19T10:19:48;6.40;;;3.40;;
39434;SDS011;66825;51.880;-0.518;2023-06-19T10:22:19;7.35;;;3.47;;
39434;SDS011;66825;51.880;-0.518;2023-06-19T10:24:51;4.47;;;3.15;;
39434;SDS011;66825;51.880;-0.518;2023-06-19T10:27:20;5.80;;;3.30;;
39434;SDS011;66825;51.880;-0.518;2023-06-19T10:29:54;7.75;;;3.60;;
39434;SDS011;66825;51.880;-0.518;2023-06-19T10:32:20;7.28;;;3.10;;
39434;SDS011;66825;51.880;-0.518;2023-06-19T10:34:47;5.00;;;3.25;;
39434;SDS011;66825;51.880;-0.518;2023-06-19T10:37:15;4.50;;;3.00;;
39434;SDS011;66825;51.880;-0.518;2023-06-19T10:39:42;8.32;;;3.60;;
39434;SDS011;66825;51.880;-0.518;2023-06-19T10:42:09;7.55;;;3.50;;
39434;SDS011;66825;51.880;-0.518;2023-06-19T10:44:35;5.93;;;3.17;;
39434;SDS011;66825;51.880;-0.518;2023-06-19T10:47:03;7.10;;;3.50;;
39434;SDS011;66825;51.880;-0.518;2023-06-19T10:49:29;5.80;;;3.50;;
39434;SDS011;66825;51.880;-0.518;2023-06-19T10:51:54;8.93;;;3.50;;
39434;SDS011;66825;51.880;-0.518;2023-06-19T10:54:24;6.77;;;3.40;;
39434;SDS011;66825;51.880;-0.518;2023-06-19T10:56:50;5.47;;;3.15;;
39434;SDS011;66825;51.880;-0.518;2023-06-19T10:59:16;5.13;;;3.15;;
39434;SDS011;66825;51.880;-0.518;2023-06-19T11:01:43;6.00;;;3.17;;
39434;SDS011;66825;51.880;-0.518;2023-06-19T11:04:11;6.05;;;3.13;;
39434;SDS011;66825;51.880;-0.518;2023-06-19T11:06:37;7.43;;;3.20;;
39434;SDS011;66825;51.880;-0.518;2023-06-19T11:09:08;5.15;;;3.15;;
39434;SDS011;66825;51.880;-0.518;2023-06-19T11:11:39;9.35;;;4.03;;
39434;SDS011;66825;51.880;-0.518;2023-06-19T11:14:05;10.02;;;3.80;;
39434;SDS011;66825;51.880;-0.518;2023-06-19T11:16:32;7.13;;;3.00;;
39434;SDS011;66825;51.880;-0.518;2023-06-19T11:18:58;5.57;;;3.20;;
39434;SDS011;66825;51.880;-0.518;2023-06-19T11:21:31;10.52;;;3.33;;
39434;SDS011;66825;51.880;-0.518;2023-06-19T11:24:02;7.80;;;3.15;;
39434;SDS011;66825;51.880;-0.518;2023-06-19T11:26:28;8.63;;;3.95;;
39434;SDS011;66825;51.880;-0.518;2023-06-19T11:28:54;6.47;;;3.38;;
39434;SDS011;66825;51.880;-0.518;2023-06-19T11:31:26;8.63;;;3.20;;
39434;SDS011;66825;51.880;-0.518;2023-06-19T11:34:01;12.13;;;3.92;;
39434;SDS011;66825;51.880;-0.518;2023-06-19T11:36:27;9.55;;;3.63;;
39434;SDS011;66825;51.880;-0.518;2023-06-19T11:38:54;7.22;;;3.83;;
39434;SDS011;66825;51.880;-0.518;2023-06-19T11:41:27;7.30;;;3.25;;
39434;SDS011;66825;51.880;-0.518;2023-06-19T11:44:00;6.53;;;3.28;;
39434;SDS011;66825;51.880;-0.518;2023-06-19T11:46:30;5.97;;;3.40;;
39434;SDS011;66825;51.880;-0.518;2023-06-19T11:49:12;6.03;;;3.13;;
39434;SDS011;66825;51.880;-0.518;2023-06-19T11:51:39;4.75;;;2.72;;
39434;SDS011;66825;51.880;-0.518;2023-06-19T11:54:07;5.90;;;3.40;;
39434;SDS011;66825;51.880;-0.518;2023-06-19T11:56:37;8.95;;;3.20;;
39434;SDS011;66825;51.880;-0.518;2023-06-19T11:59:03;7.28;;;3.30;;
39434;SDS011;66825;51.880;-0.518;2023-06-19T12:01:29;9.43;;;3.28;;
39434;SDS011;66825;51.880;-0.518;2023-06-19T12:03:56;5.78;;;3.10;;
39434;SDS011;66825;51.880;-0.518;2023-06-19T12:06:22;8.10;;;3.00;;
39434;SDS011;66825;51.880;-0.518;2023-06-19T12:08:48;8.88;;;3.40;;
39434;SDS011;66825;51.880;-0.518;2023-06-19T12:11:13;12.82;;;3.83;;
39434;SDS011;66825;51.880;-0.518;2023-06-19T12:13:42;9.68;;;3.65;;
39434;SDS011;66825;51.880;-0.518;2023-06-19T12:16:11;12.40;;;3.87;;
39434;SDS011;66825;51.880;-0.518;2023-06-19T12:18:39;9.77;;;4.00;;
39434;SDS011;66825;51.880;-0.518;2023-06-19T12:21:05;10.65;;;4.13;;
39434;SDS011;66825;51.880;-0.518;2023-06-19T12:23:30;12.45;;;4.40;;
39434;SDS011;66825;51.880;-0.518;2023-06-19T12:25:56;15.82;;;4.82;;
39434;SDS011;66825;51.880;-0.518;2023-06-19T12:28:22;11.00;;;4.35;;
39434;SDS011;66825;51.880;-0.518;2023-06-19T12:30:48;11.63;;;3.85;;
39434;SDS011;66825;51.880;-0.518;2023-06-19T12:33:17;12.27;;;4.40;;
39434;SDS011;66825;51.880;-0.518;2023-06-19T12:35:43;13.15;;;4.70;;
39434;SDS011;66825;51.880;-0.518;2023-06-19T12:38:09;8.85;;;3.90;;
39434;SDS011;66825;51.880;-0.518;2023-06-19T12:40:35;9.80;;;3.95;;
39434;SDS011;66825;51.880;-0.518;2023-06-19T12:43:01;8.80;;;4.18;;
39434;SDS011;66825;51.880;-0.518;2023-06-19T12:45:27;9.73;;;3.92;;
39434;SDS011;66825;51.880;-0.518;2023-06-19T12:47:53;13.70;;;4.53;;
39434;SDS011;66825;51.880;-0.518;2023-06-19T12:50:18;13.00;;;4.63;;
39434;SDS011;66825;51.880;-0.518;2023-06-19T12:52:44;14.57;;;4.75;;
39434;SDS011;66825;51.880;-0.518;2023-06-19T12:55:09;11.50;;;4.65;;
39434;SDS011;66825;51.880;-0.518;2023-06-19T12:57:35;11.77;;;4.55;;
39434;SDS011;66825;51.880;-0.518;2023-06-19T13:00:01;11.02;;;4.28;;
39434;SDS011;66825;51.880;-0.518;2023-06-19T13:02:28;10.05;;;3.85;;
39434;SDS011;66825;51.880;-0.518;2023-06-19T13:04:54;8.88;;;3.63;;
39434;SDS011;66825;51.880;-0.518;2023-06-19T13:07:19;7.50;;;3.63;;
39434;SDS011;66825;51.880;-0.518;2023-06-19T13:09:45;7.10;;;2.95;;
39434;SDS011;66825;51.880;-0.518;2023-06-19T13:12:10;7.40;;;3.25;;
39434;SDS011;66825;51.880;-0.518;2023-06-19T13:14:36;8.27;;;3.50;;
39434;SDS011;66825;51.880;-0.518;2023-06-19T13:17:03;8.57;;;3.10;;
39434;SDS011;66825;51.880;-0.518;2023-06-19T13:19:28;5.40;;;3.10;;
39434;SDS011;66825;51.880;-0.518;2023-06-19T13:21:54;8.85;;;3.63;;
39434;SDS011;66825;51.880;-0.518;2023-06-19T13:24:19;6.90;;;3.33;;
39434;SDS011;66825;51.880;-0.518;2023-06-19T13:26:45;11.32;;;4.53;;
39434;SDS011;66825;51.880;-0.518;2023-06-19T13:29:13;10.15;;;4.63;;
39434;SDS011;66825;51.880;-0.518;2023-06-19T13:31:38;11.68;;;4.20;;
39434;SDS011;66825;51.880;-0.518;2023-06-19T13:34:04;10.50;;;4.07;;
39434;SDS011;66825;51.880;-0.518;2023-06-19T13:36:29;9.15;;;3.30;;
39434;SDS011;66825;51.880;-0.518;2023-06-19T13:38:55;6.75;;;3.67;;
39434;SDS011;66825;51.880;-0.518;2023-06-19T13:41:21;5.50;;;3.08;;
39434;SDS011;66825;51.880;-0.518;2023-06-19T13:43:49;8.02;;;3.65;;
39434;SDS011;66825;51.880;-0.518;2023-06-19T13:46:15;6.43;;;3.17;;
39434;SDS011;66825;51.880;-0.518;2023-06-19T13:48:41;7.78;;;3.53;;
39434;SDS011;66825;51.880;-0.518;2023-06-19T13:51:06;10.32;;;3.40;;
39434;SDS011;66825;51.880;-0.518;2023-06-19T13:53:32;12.02;;;3.60;;
39434;SDS011;66825;51.880;-0.518;2023-06-19T13:55:58;7.47;;;3.40;;
39434;SDS011;66825;51.880;-0.518;2023-06-19T13:58:24;7.20;;;3.00;;
39434;SDS011;66825;51.880;-0.518;2023-06-19T14:00:49;7.93;;;3.13;;
39434;SDS011;66825;51.880;-0.518;2023-06-19T14:03:15;8.13;;;2.95;;
39434;SDS011;66825;51.880;-0.518;2023-06-19T14:05:41;8.85;;;3.30;;
39434;SDS011;66825;51.880;-0.518;2023-06-19T14:08:06;4.85;;;2.83;;
39434;SDS011;66825;51.880;-0.518;2023-06-19T14:10:32;5.82;;;3.20;;
39434;SDS011;66825;51.880;-0.518;2023-06-19T14:12:57;5.03;;;2.67;;
39434;SDS011;66825;51.880;-0.518;2023-06-19T14:15:23;6.43;;;2.92;;
39434;SDS011;66825;51.880;-0.518;2023-06-19T14:17:48;4.70;;;2.75;;
39434;SDS011;66825;51.880;-0.518;2023-06-19T14:20:14;5.63;;;2.78;;
39434;SDS011;66825;51.880;-0.518;2023-06-19T14:22:39;10.75;;;3.80;;
39434;SDS011;66825;51.880;-0.518;2023-06-19T14:25:05;5.20;;;3.03;;
39434;SDS011;66825;51.880;-0.518;2023-06-19T14:27:30;7.93;;;3.20;;
39434;SDS011;66825;51.880;-0.518;2023-06-19T14:29:56;5.70;;;3.00;;
39434;SDS011;66825;51.880;-0.518;2023-06-19T14:32:22;8.57;;;3.35;;
39434;SDS011;66825;51.880;-0.518;2023-06-19T14:34:49;7.63;;;2.83;;
39434;SDS011;66825;51.880;-0.518;2023-06-19T14:37:14;6.22;;;2.90;;